createdAt,value
2023-03-28T00:04:17.750Z,91.18135
2023-03-28T00:09:19.281Z,87.88025
2023-03-28T00:14:20.735Z,95.60815
2023-03-28T00:19:22.216Z,97.82155
2023-03-28T00:24:23.793Z,98.84125
2023-03-28T00:29:25.181Z,92.2519
2023-03-28T00:34:26.671Z,127.6399
2023-03-28T00:39:28.022Z,81.29705
2023-03-28T00:44:29.408Z,81.2039
2023-03-28T00:49:31.000Z,78.4923
2023-03-28T00:54:32.412Z,72.6089
2023-03-28T00:59:33.861Z,66.67035
2023-03-28T01:04:35.333Z,61.7092
2023-03-28T01:09:36.753Z,60.78695
2023-03-28T01:14:38.220Z,59.20105
2023-03-28T01:19:39.752Z,57.6513
2023-03-28T01:24:41.168Z,52.3764
2023-03-28T01:29:42.809Z,48.02375
2023-03-28T01:34:44.441Z,45.7552
2023-03-28T01:39:45.909Z,37.62225
2023-03-28T01:44:47.329Z,30.4667
2023-03-28T01:49:48.769Z,27.4052
2023-03-28T01:54:50.186Z,18.29485
2023-03-28T01:59:51.856Z,15.60225
2023-03-28T02:04:53.509Z,9.793
2023-03-28T02:09:58.727Z,6.91595
2023-03-28T02:15:00.255Z,3.24595
2023-03-28T02:20:01.644Z,1.7152
2023-03-28T02:25:03.073Z,0.8296
2023-03-28T02:30:04.506Z,0
2023-03-28T02:35:05.952Z,0
2023-03-28T02:40:07.470Z,0
2023-03-28T02:45:08.982Z,0
2023-03-28T02:50:10.600Z,0
2023-03-28T02:55:12.025Z,0
2023-03-28T03:00:13.413Z,0
2023-03-28T03:05:14.817Z,0
2023-03-28T03:10:16.294Z,0
2023-03-28T03:15:17.715Z,0
2023-03-28T03:20:19.085Z,0
2023-03-28T03:25:20.537Z,0
2023-03-28T03:30:21.966Z,0
2023-03-28T03:35:23.643Z,0
2023-03-28T03:40:25.299Z,0
2023-03-28T03:45:26.773Z,0
2023-03-28T03:50:28.209Z,0
2023-03-28T03:55:29.774Z,0
2023-03-28T04:00:31.244Z,0
2023-03-28T04:05:32.652Z,0
2023-03-28T04:10:34.143Z,0
2023-03-28T04:15:35.695Z,0
2023-03-28T04:20:37.154Z,0
2023-03-28T04:25:38.731Z,0
2023-03-28T04:30:40.161Z,0
2023-03-28T04:35:41.683Z,0
2023-03-28T04:40:43.089Z,0
2023-03-28T04:45:44.560Z,0
2023-03-28T04:50:46.042Z,0
2023-03-28T04:55:47.505Z,0
2023-03-28T05:00:49.136Z,0
2023-03-28T05:05:50.518Z,0
2023-03-28T05:10:51.923Z,0
2023-03-28T05:15:53.465Z,0
2023-03-28T05:20:54.979Z,0
2023-03-28T05:25:56.356Z,0
2023-03-28T05:30:58.078Z,0
2023-03-28T05:35:59.771Z,0
2023-03-28T05:41:01.903Z,0
2023-03-28T05:46:03.792Z,0
2023-03-28T05:51:05.335Z,0
2023-03-28T05:56:06.713Z,0
2023-03-28T06:01:08.145Z,0
2023-03-28T06:06:09.540Z,0
2023-03-28T06:11:11.092Z,0
2023-03-28T06:16:12.499Z,0
2023-03-28T06:21:13.977Z,0
2023-03-28T06:26:15.516Z,0
2023-03-28T06:31:17.069Z,0
2023-03-28T06:36:18.510Z,0
2023-03-28T06:41:19.978Z,0
2023-03-28T06:46:21.415Z,0
2023-03-28T06:51:22.890Z,0
2023-03-28T06:56:24.400Z,0
2023-03-28T07:01:25.961Z,0
2023-03-28T07:06:27.853Z,0
2023-03-28T07:11:29.250Z,0
2023-03-28T07:16:30.760Z,0
2023-03-28T07:21:32.192Z,0
2023-03-28T07:26:33.610Z,0
2023-03-28T07:31:35.209Z,0
2023-03-28T07:36:36.686Z,0
2023-03-28T07:41:38.180Z,0
2023-03-28T07:46:39.678Z,0
2023-03-28T07:51:41.092Z,0
2023-03-28T07:56:42.570Z,0
2023-03-28T08:01:44.025Z,0
2023-03-28T08:06:45.514Z,0
2023-03-28T08:11:47.064Z,0
2023-03-28T08:16:48.512Z,0
2023-03-28T08:21:50.088Z,0
2023-03-28T08:26:51.492Z,0
2023-03-28T08:31:53.242Z,0
2023-03-28T08:36:55.075Z,0
2023-03-28T08:41:56.472Z,0
2023-03-28T08:46:57.873Z,0
2023-03-28T08:51:59.316Z,0
2023-03-28T08:57:00.793Z,0
2023-03-28T09:02:02.323Z,0
2023-03-28T09:07:03.846Z,0
2023-03-28T09:12:05.269Z,0
2023-03-28T09:17:06.786Z,0
2023-03-28T09:22:15.274Z,0
2023-03-28T09:27:17.855Z,0
2023-03-28T09:32:19.355Z,0
2023-03-28T09:37:20.819Z,0
2023-03-28T09:42:22.212Z,0
2023-03-28T09:47:23.709Z,0
2023-03-28T09:52:25.146Z,0
2023-03-28T09:57:26.592Z,0
2023-03-28T10:02:28.130Z,0
2023-03-28T10:07:29.537Z,0
2023-03-28T10:12:30.931Z,0
2023-03-28T10:17:33.688Z,0
2023-03-28T10:22:36.997Z,0
2023-03-28T10:27:38.420Z,0
2023-03-28T10:32:39.897Z,0
2023-03-28T10:37:41.408Z,0
2023-03-28T10:42:42.834Z,0
2023-03-28T10:47:44.310Z,0
2023-03-28T10:52:45.746Z,0
2023-03-28T10:57:47.271Z,0
2023-03-28T11:02:48.934Z,0
2023-03-28T11:07:50.532Z,0
2023-03-28T11:12:55.588Z,0
2023-03-28T11:17:58.307Z,0
2023-03-28T11:23:06.443Z,0
2023-03-28T11:28:08.410Z,0
2023-03-28T11:33:09.842Z,0
2023-03-28T11:38:11.249Z,0
2023-03-28T11:43:12.897Z,0
2023-03-28T11:48:14.344Z,0
2023-03-28T11:53:15.751Z,0
2023-03-28T11:58:17.208Z,0
2023-03-28T12:03:18.696Z,0
2023-03-28T12:08:20.233Z,0
2023-03-28T12:13:21.881Z,0
2023-03-28T12:18:23.257Z,0
2023-03-28T12:23:24.773Z,0
2023-03-28T12:28:26.437Z,0
2023-03-28T12:33:28.045Z,0
2023-03-28T12:38:29.450Z,0
2023-03-28T12:43:30.883Z,0
2023-03-28T12:48:32.299Z,0
2023-03-28T12:53:33.717Z,0
2023-03-28T12:58:35.120Z,0
2023-03-28T13:03:36.624Z,0
2023-03-28T13:08:38.033Z,0
2023-03-28T13:13:39.455Z,0.88715
2023-03-28T13:18:40.988Z,1.16185
2023-03-28T13:23:42.368Z,0.5333
2023-03-28T13:28:43.749Z,1.7152
2023-03-28T13:33:45.177Z,3.24595
2023-03-28T13:38:46.643Z,4.0295
2023-03-28T13:43:48.017Z,5.62945
2023-03-28T13:48:49.444Z,12.4856
2023-03-28T13:53:50.838Z,16.34005
2023-03-28T13:58:52.208Z,23.31115
2023-03-28T14:03:53.827Z,32.4215
2023-03-28T14:08:55.323Z,30.04265
2023-03-28T14:13:56.765Z,45.3863
2023-03-28T14:18:58.347Z,50.21815
2023-03-28T14:23:59.762Z,58.16665
2023-03-28T14:29:01.216Z,60.0663
2023-03-28T14:34:02.706Z,69.3611
2023-03-28T14:39:04.169Z,74.1378
2023-03-28T14:44:05.582Z,145.06145
2023-03-28T14:49:07.022Z,282.18325
2023-03-28T14:54:08.629Z,419.127
2023-03-28T14:59:10.033Z,436.84495
2023-03-28T15:04:11.769Z,446.03
2023-03-28T15:09:13.184Z,263.22065
2023-03-28T15:14:14.667Z,271.99115
2023-03-28T15:19:16.153Z,192.17125
2023-03-28T15:24:17.550Z,290.7739
2023-03-28T15:29:18.992Z,270.74665
2023-03-28T15:34:20.373Z,252.8508
2023-03-28T15:39:21.762Z,273.828
2023-03-28T15:44:23.178Z,308.25675
2023-03-28T15:49:24.573Z,298.06435
2023-03-28T15:54:31.249Z,317.85645
2023-03-28T15:59:33.407Z,308.0197
2023-03-28T16:04:34.832Z,288.22775
2023-03-28T16:09:36.266Z,272.9393
2023-03-28T16:14:37.673Z,270.9245
2023-03-28T16:19:39.146Z,283.25005
2023-03-28T16:24:40.612Z,301.08655
2023-03-28T16:29:42.016Z,316.7898
2023-03-28T16:34:43.509Z,323.9598
2023-03-28T16:39:44.975Z,374.39465
2023-03-28T16:44:46.387Z,457.0343
2023-03-28T16:49:47.852Z,632.2169
2023-03-28T16:54:49.265Z,473.22605
2023-03-28T16:59:50.700Z,489.3265
2023-03-28T17:04:52.103Z,357.61155
2023-03-28T17:09:53.555Z,326.38945
2023-03-28T17:14:55.040Z,308.01955
2023-03-28T17:19:56.541Z,301.26415
2023-03-28T17:24:57.959Z,306.775
2023-03-28T17:29:59.517Z,315.78215
2023-03-28T17:35:01.154Z,323.48555
2023-03-28T17:40:02.629Z,318.9227
2023-03-28T17:45:04.120Z,332.55185
2023-03-28T17:50:05.547Z,336.285
2023-03-28T17:55:06.953Z,340.07745
2023-03-28T18:00:08.393Z,338.4775
2023-03-28T18:05:09.974Z,346.3587
2023-03-28T18:10:11.413Z,347.5439
2023-03-28T18:15:12.853Z,347.60315
2023-03-28T18:20:14.445Z,343.7514
2023-03-28T18:25:15.821Z,337.1739
2023-03-28T18:30:17.303Z,331.42595
2023-03-28T18:35:18.685Z,319.6337
2023-03-28T18:40:20.118Z,315.24865
2023-03-28T18:45:21.572Z,318.03375
2023-03-28T18:50:22.973Z,317.1449
2023-03-28T18:55:24.480Z,312.81915
2023-03-28T19:00:25.894Z,300.73065
2023-03-28T19:05:27.449Z,299.60475
2023-03-28T19:10:28.850Z,308.671
2023-03-28T19:15:30.346Z,215.54285
2023-03-28T19:20:31.790Z,302.7452
2023-03-28T19:25:33.224Z,286.8051
2023-03-28T19:30:34.745Z,276.3758
2023-03-28T19:35:36.205Z,202.79495
2023-03-28T19:40:37.692Z,192.15385
2023-03-28T19:45:39.318Z,272.1686
2023-03-28T19:50:40.743Z,268.4946
2023-03-28T19:55:42.247Z,277.8572
2023-03-28T20:00:43.645Z,289.4123
2023-03-28T20:05:45.062Z,289.70865
2023-03-28T20:10:46.664Z,288.9976
2023-03-28T20:15:48.061Z,298.9528
2023-03-28T20:20:49.535Z,304.64155
2023-03-28T20:25:50.925Z,310.6266
2023-03-28T20:30:52.315Z,314.30055
2023-03-28T20:35:53.858Z,315.3672
2023-03-28T20:40:55.473Z,318.9819
2023-03-28T20:45:57.112Z,320.16705
2023-03-28T20:50:58.652Z,324.0188
2023-03-28T20:56:00.175Z,330.4186
2023-03-28T21:01:01.942Z,340.1369
2023-03-28T21:06:03.581Z,344.522
2023-03-28T21:11:04.988Z,351.09965
2023-03-28T21:16:06.437Z,355.84025
2023-03-28T21:21:07.986Z,366.3882
2023-03-28T21:26:09.401Z,370.3585
2023-03-28T21:31:10.832Z,375.81015
2023-03-28T21:36:12.246Z,380.8471
2023-03-28T21:41:13.740Z,384.81735
2023-03-28T21:46:15.195Z,385.05435
2023-03-28T21:51:16.727Z,390.0913
2023-03-28T21:56:18.146Z,403.8668
2023-03-28T22:01:19.586Z,405.4717
2023-03-28T22:06:21.013Z,412.0758
2023-03-28T22:11:22.408Z,420.1707
2023-03-28T22:16:23.836Z,414.5646
2023-03-28T22:21:25.305Z,412.6091
2023-03-28T22:26:26.692Z,409.7055
2023-03-28T22:31:28.108Z,409.17215
2023-03-28T22:36:29.712Z,405.37965
2023-03-28T22:41:31.364Z,401.88345
2023-03-28T22:46:32.930Z,396.9058
2023-03-28T22:51:34.348Z,390.86155
2023-03-28T22:56:35.764Z,381.49885
2023-03-28T23:01:37.263Z,374.3287
2023-03-28T23:06:38.792Z,369.76585
2023-03-28T23:11:40.224Z,363.54375
2023-03-28T23:16:42.037Z,356.96615
2023-03-28T23:21:43.506Z,349.67745
2023-03-28T23:26:44.935Z,341.97395
2023-03-28T23:31:46.446Z,332.84825
2023-03-28T23:36:47.926Z,323.01145
2023-03-28T23:41:49.357Z,313.708
2023-03-28T23:46:50.799Z,302.9231
2023-03-28T23:51:52.210Z,294.5085
2023-03-28T23:56:53.669Z,284.8495
